Dades meteomassalio
Diari Summary for Setembre 11, 2017 Units:  Metric    English   Both
« Previous Day
Next Day »
Diari Semanal Mensual Anual Personalitzat
  Maxima: Minima: Mijana:
Temperatura: -17.8 °C -12.2 °C -6.3 °C
Rosada: -17.8 °C -16.3 °C -12.2 °C
Humitat: Humidity % 41 % 51 %
Velocitat del vent: 0 km/h 0 km/h 28.5 km/h
Racha vent: 0 km/h - -
Vent:- - SW
Pressio: 0 hPa 34256.2 hPa -
Pluja: 0 mm    
Historical Graphs
 
 
Tabular Data for Setembre 11, 2017
Time Temperature Dew Point Pressure Wind Wind Speed Wind Gust Humidity Rainfall Rate (Hourly) solar Conditions
-17.8 °C -17.8 °C 0 hPa Calm     Humidity % 0 mm SolarRadiationWatts/m^2 W/m2 Conditions
00:04 -7.6 °C -13.5 °C 34384.8 hPa SSW 35.7 km/h 35.7 km/h 50 % 0 mm 0.0 W/m2 CLR
00:09 -7.3 °C -13.2 °C 34384.8 hPa SW 29.8 km/h 29.8 km/h 50 % 0 mm 0.0 W/m2 CLR
00:14 -7.6 °C -13.5 °C 34395 hPa SSW 23.8 km/h 23.8 km/h 50 % 0 mm 0.0 W/m2 CLR
00:19 -7.6 °C -13.3 °C 34384.8 hPa SSW 29.8 km/h 29.8 km/h 51 % 0 mm 0.0 W/m2 CLR
00:24 -7.6 °C -13.3 °C 34384.8 hPa SSW 29.8 km/h 29.8 km/h 51 % 0 mm 0.0 W/m2 CLR
00:29 -7.6 °C -13.3 °C 34384.8 hPa SSW 23.8 km/h 23.8 km/h 51 % 0 mm 0.0 W/m2 CLR
00:34 -7.6 °C -13.3 °C 34384.8 hPa SSW 26.9 km/h 26.9 km/h 51 % 0 mm 0.0 W/m2 CLR
00:39 -7.6 °C -13.3 °C 34384.8 hPa SW 23.8 km/h 23.8 km/h 51 % 0 mm 0.0 W/m2 CLR
00:44 -7.6 °C -13.3 °C 34395 hPa SSW 23.8 km/h 23.8 km/h 51 % 0 mm 0.0 W/m2 CLR
00:49 -7.6 °C -13.3 °C 34384.8 hPa SSW 26.9 km/h 26.9 km/h 51 % 0 mm 0.0 W/m2 CLR
00:54 -7.9 °C -13.6 °C 34395 hPa SSW 29.8 km/h 29.8 km/h 51 % 0 mm 0.0 W/m2 CLR
00:59 -7.9 °C -13.6 °C 34384.8 hPa SSW 26.9 km/h 26.9 km/h 51 % 0 mm 0.0 W/m2 CLR
01:04 -7.9 °C -13.6 °C 34395 hPa SSW 23.8 km/h 23.8 km/h 51 % 0 mm 0.0 W/m2 CLR
01:09 -7.9 °C -13.6 °C 34395 hPa SSW 20.9 km/h 20.9 km/h 51 % 0 mm 0.0 W/m2 CLR
01:14 -7.9 °C -13.6 °C 34384.8 hPa South 35.7 km/h 35.7 km/h 51 % 0 mm 0.0 W/m2 CLR
01:19 -7.9 °C -13.6 °C 34384.8 hPa SSW 38.8 km/h 38.8 km/h 51 % 0 mm 0.0 W/m2 CLR
01:24 -8.2 °C -13.9 °C 34384.8 hPa SW 29.8 km/h 29.8 km/h 51 % 0 mm 0.0 W/m2 CLR
01:29 -8.2 °C -13.7 °C 34384.8 hPa SW 38.8 km/h 38.8 km/h 52 % 0 mm 0.0 W/m2 CLR
01:34 -8.2 °C -13.7 °C 34384.8 hPa SSW 28.5 km/h 28.5 km/h 52 % 0 mm 0.0 W/m2 CLR
01:39 -8.2 °C -13.7 °C 34384.8 hPa SSW 26.9 km/h 26.9 km/h 52 % 0 mm 0.0 W/m2 CLR
01:44 -8.2 °C -13.7 °C 34384.8 hPa SSW 23.8 km/h 23.8 km/h 52 % 0 mm 0.0 W/m2 CLR
01:49 -8.2 °C -13.6 °C 34371.3 hPa SW 23.3 km/h 23.3 km/h 53 % 0 mm 0.0 W/m2 CLR
01:54 -8.5 °C -13.8 °C 34384.8 hPa SSW 15 km/h 15 km/h 53 % 0 mm 0.0 W/m2 CLR
01:59 -8.5 °C -13.8 °C 34371.3 hPa SSW 17.9 km/h 17.9 km/h 53 % 0 mm 0.0 W/m2 CLR
02:04 -8.8 °C -14 °C 34371.3 hPa Calm     54 % 0 mm 0.0 W/m2 CLR
02:09 -9.1 °C -14.3 °C 34371.3 hPa SSW 23.8 km/h 23.8 km/h 54 % 0 mm 0.0 W/m2 CLR
02:14 -9.4 °C -14.6 °C 34371.3 hPa SSW 15.6 km/h 15.6 km/h 54 % 0 mm 0.0 W/m2 CLR
02:19 -9.4 °C -14.6 °C 34371.3 hPa South 17.9 km/h 17.9 km/h 54 % 0 mm 0.0 W/m2 CLR
02:24 -9.1 °C -14.1 °C 34371.3 hPa SSE 9 km/h 9 km/h 55 % 0 mm 0.0 W/m2 CLR
02:29 -8.8 °C -13.7 °C 34371.3 hPa Calm     56 % 0 mm 0.0 W/m2 CLR
02:34 -9.1 °C -13.8 °C 34371.3 hPa Calm     57 % 0 mm 0.0 W/m2 CLR
02:39 -9.1 °C -13.8 °C 34371.3 hPa Calm     57 % 0 mm 0.0 W/m2 CLR
02:44 -9.1 °C -14 °C 34371.3 hPa SSW 3.1 km/h   56 % 0 mm 0.0 W/m2 CLR
02:49 -9.4 °C -14.3 °C 34371.3 hPa South 9 km/h 9 km/h 56 % 0 mm 0.0 W/m2 CLR
02:54 -9.4 °C -14.4 °C 34371.3 hPa SSE 9 km/h 9 km/h 55 % 0 mm 0.0 W/m2 CLR
02:59 -9.4 °C -14.4 °C 34361.1 hPa Calm     55 % 0 mm 0.0 W/m2 CLR
03:04 -9.1 °C -14.1 °C 34371.3 hPa Calm     55 % 0 mm 0.0 W/m2 CLR
03:06 -9.1 °C -14.1 °C 34371.3 hPa Calm     55 % 0 mm 0.0 W/m2 CLR
03:11 -9.1 °C -14 °C 34371.3 hPa Calm     56 % 0 mm 0.0 W/m2 CLR
03:16 -9.1 °C -14 °C 34371.3 hPa Calm     56 % 0 mm 0.0 W/m2 CLR
03:21 -9.1 °C -14 °C 34361.1 hPa Calm     56 % 0 mm 0.0 W/m2 CLR
03:26 -9.1 °C -14 °C 34361.1 hPa SSW 23.3 km/h 23.3 km/h 56 % 0 mm 0.0 W/m2 CLR
03:31 -8.8 °C -14 °C 34361.1 hPa SSW 26.9 km/h 26.9 km/h 54 % 0 mm 0.0 W/m2 CLR
03:36 -8.8 °C -14.2 °C 34361.1 hPa SSW 26.9 km/h 26.9 km/h 53 % 0 mm 0.0 W/m2 CLR
03:41 -9.1 °C -14.4 °C 34361.1 hPa SSW 29.8 km/h 29.8 km/h 53 % 0 mm 0.0 W/m2 CLR
03:46 -9.1 °C -14.4 °C 34361.1 hPa South 20.8 km/h 20.8 km/h 53 % 0 mm 0.0 W/m2 CLR
03:51 -9.4 °C -14.7 °C 34347.6 hPa South 15.6 km/h 15.6 km/h 53 % 0 mm 0.0 W/m2 CLR
03:56 -9.1 °C -14.4 °C 34347.6 hPa South 9 km/h 9 km/h 53 % 0 mm 0.0 W/m2 CLR
04:01 -8.8 °C -14.2 °C 34347.6 hPa SSW 18.2 km/h 18.2 km/h 53 % 0 mm 0.0 W/m2 CLR
04:06 -8.8 °C -14 °C 34361.1 hPa South 29.8 km/h 29.8 km/h 54 % 0 mm 0.0 W/m2 CLR
04:11 -8.8 °C -14 °C 34347.6 hPa South 6 km/h 6 km/h 54 % 0 mm 0.0 W/m2 CLR
04:16 -9.1 °C -14 °C 34361.1 hPa SSW 26.9 km/h 26.9 km/h 56 % 0 mm 0.0 W/m2 CLR
04:21 -9.4 °C -14.3 °C 34347.6 hPa SSW 29.8 km/h 29.8 km/h 56 % 0 mm 0.0 W/m2 CLR
04:26 -9.4 °C -14.3 °C 34347.6 hPa SW 31.1 km/h 31.1 km/h 56 % 0 mm 0.0 W/m2 CLR
04:31 -9.1 °C -14 °C 34347.6 hPa SSW 32.8 km/h 32.8 km/h 56 % 0 mm 0.0 W/m2 CLR
04:36 -8.8 °C -13.7 °C 34347.6 hPa SSW 29.8 km/h 29.8 km/h 56 % 0 mm 0.0 W/m2 CLR
04:41 -8.5 °C -13.4 °C 34347.6 hPa SSW 25.9 km/h 25.9 km/h 56 % 0 mm 0.0 W/m2 CLR
04:42 -8.5 °C -13.4 °C 34347.6 hPa SW 26.9 km/h 26.9 km/h 56 % 0 mm 0.0 W/m2 CLR
04:47 -8.5 °C -13.4 °C 34347.6 hPa SSW 26.9 km/h 26.9 km/h 56 % 0 mm 0.0 W/m2 CLR
04:52 -8.5 °C -13.3 °C 34337.4 hPa SSW 29.8 km/h 29.8 km/h 57 % 0 mm 0.0 W/m2 CLR
04:57 -8.5 °C -13.3 °C 34337.4 hPa SSW 23.8 km/h 23.8 km/h 57 % 0 mm 0.0 W/m2 CLR
05:02 -8.8 °C -13.6 °C 34347.6 hPa SSW 20.9 km/h 20.9 km/h 57 % 0 mm 0.0 W/m2 CLR
05:07 -8.8 °C -13.6 °C 34337.4 hPa SSW 29.8 km/h 29.8 km/h 57 % 0 mm 0.0 W/m2 CLR
05:12 -9.1 °C -13.8 °C 34337.4 hPa SSW 26.9 km/h 26.9 km/h 57 % 0 mm 0.0 W/m2 CLR
05:20 -9.4 °C -14.1 °C 34337.4 hPa SSW 26.9 km/h 26.9 km/h 57 % 0 mm 0.0 W/m2 CLR
05:23 -9.4 °C -14.1 °C 34337.4 hPa SW 31.1 km/h 31.1 km/h 57 % 0 mm 0.0 W/m2 CLR
05:26 -9.4 °C -14.3 °C 34337.4 hPa SSW 35.7 km/h 35.7 km/h 56 % 0 mm 0.0 W/m2 CLR
05:27 -9.4 °C -14.3 °C 34337.4 hPa SSW 29.8 km/h 29.8 km/h 56 % 0 mm 0.0 W/m2 CLR
05:31 -9.4 °C -14.3 °C 34337.4 hPa SSW 29.8 km/h 29.8 km/h 56 % 0 mm 0.0 W/m2 CLR
05:35 -9.8 °C -14.6 °C 34337.4 hPa SSW 26.9 km/h 26.9 km/h 56 % 0 mm 0.0 W/m2 CLR
05:40 -9.8 °C -14.6 °C 34337.4 hPa SSW 29.8 km/h 29.8 km/h 56 % 0 mm 0.0 W/m2 CLR
05:45 -10.1 °C -14.9 °C 34337.4 hPa SSW 23.8 km/h 23.8 km/h 56 % 0 mm 0.0 W/m2 CLR
05:50 -10.4 °C -15.2 °C 34337.4 hPa SW 28.5 km/h 28.5 km/h 56 % 0 mm 0.0 W/m2 CLR
05:55 -10.4 °C -15 °C 34337.4 hPa SW 26.9 km/h 26.9 km/h 57 % 0 mm 0.0 W/m2 CLR
06:00 -10.7 °C -15.3 °C 34337.4 hPa SSW 29.8 km/h 29.8 km/h 57 % 0 mm 0.0 W/m2 CLR
06:05 -10.7 °C -15.3 °C 34327.3 hPa SW 29.8 km/h 29.8 km/h 57 % 0 mm 0.0 W/m2 CLR
06:10 -11 °C -15.6 °C 34337.4 hPa SW 23.8 km/h 23.8 km/h 57 % 0 mm 0.0 W/m2 CLR
06:15 -11 °C -15.6 °C 34337.4 hPa SW 26.9 km/h 26.9 km/h 57 % 0 mm 0.0 W/m2 CLR
06:20 -11 °C -15.6 °C 34327.3 hPa SW 23.8 km/h 23.8 km/h 57 % 0 mm 0.0 W/m2 CLR
06:26 -11 °C -15.4 °C 34337.4 hPa SSW 26.9 km/h 26.9 km/h 58 % 0 mm 0.0 W/m2 CLR
06:31 -11 °C -15.4 °C 34327.3 hPa SW 26.9 km/h 26.9 km/h 58 % 0 mm 0.0 W/m2 CLR
06:36 -11.3 °C -15.7 °C 34327.3 hPa SW 29.8 km/h 29.8 km/h 58 % 0 mm 0.0 W/m2 CLR
06:41 -11.3 °C -15.7 °C 34327.3 hPa SW 29.8 km/h 29.8 km/h 58 % 0 mm 0.0 W/m2 CLR
06:46 -11.3 °C -15.7 °C 34327.3 hPa SSW 17.9 km/h 17.9 km/h 58 % 0 mm 0.0 W/m2 CLR
06:51 -11.3 °C -15.7 °C 34327.3 hPa Calm     58 % 0 mm 0.0 W/m2 CLR
06:56 -11.6 °C -15.9 °C 34337.4 hPa Calm     59 % 0 mm 0.0 W/m2 CLR
07:01 -11.6 °C -15.6 °C 34337.4 hPa Calm     61 % 0 mm 0.0 W/m2 CLR
07:06 -11.6 °C -15.4 °C 34337.4 hPa Calm     63 % 0 mm 0.0 W/m2 CLR
07:11 -11.6 °C -15.1 °C 34337.4 hPa Calm     65 % 0 mm 0.0 W/m2 CLR
07:16 -11.6 °C -15 °C 34337.4 hPa Calm     66 % 0 mm 0.0 W/m2 CLR
07:21 -11.9 °C -15.3 °C 34337.4 hPa Calm     66 % 0 mm 0.0 W/m2 CLR
07:26 -11.9 °C -15.2 °C 34337.4 hPa Calm     67 % 0 mm 0.0 W/m2 OVC
07:31 -11.9 °C -15.2 °C 34337.4 hPa Calm     67 % 0 mm 0.0 W/m2 OVC
07:36 -11.9 °C -15.1 °C 34337.4 hPa Calm     68 % 0 mm 5.0 W/m2 OVC
07:41 -11.9 °C -15.1 °C 34337.4 hPa Calm     68 % 0 mm 7.0 W/m2 BKN
07:46 -11.9 °C -14.9 °C 34337.4 hPa Calm     69 % 0 mm 9.0 W/m2 BKN
07:51 -12.2 °C -15.2 °C 34337.4 hPa Calm     69 % 0 mm 11.0 W/m2 BKN
07:56 -11.9 °C -14.8 °C 34337.4 hPa Calm     70 % 0 mm 12.0 W/m2 BKN
08:01 -11.9 °C -14.9 °C 34337.4 hPa Calm     69 % 0 mm 16.0 W/m2 BKN
08:06 -11.9 °C -14.9 °C 34337.4 hPa Calm     69 % 0 mm 19.0 W/m2 BKN
08:11 -11.9 °C -15.2 °C 34337.4 hPa Calm     67 % 0 mm 32.0 W/m2 BKN
08:16 -11.9 °C -15.4 °C 34337.4 hPa Calm     65 % 0 mm 44.0 W/m2 BKN
08:21 -11.6 °C -15.4 °C 34337.4 hPa Calm     63 % 0 mm 53.0 W/m2 SCT
08:26 -11.6 °C -15.9 °C 34337.4 hPa Calm     59 % 0 mm 60.0 W/m2 SCT
08:31 -11.6 °C -16.2 °C 34337.4 hPa Calm   0.8 km/h 57 % 0 mm 49.0 W/m2 SCT
08:36 -11.3 °C -16.3 °C 34337.4 hPa South 9 km/h 9 km/h 54 % 0 mm 25.0 W/m2 BKN
08:41 -11 °C -16.3 °C 34347.6 hPa South 11.9 km/h 11.9 km/h 52 % 0 mm 25.0 W/m2 BKN
08:46 -10.1 °C -15.8 °C 34347.6 hPa South 12.9 km/h 12.9 km/h 50 % 0 mm 28.0 W/m2 BKN
08:51 -9.8 °C -15.8 °C 34347.6 hPa SSW 11.9 km/h 11.9 km/h 48 % 0 mm 156.0 W/m2 BKN
08:56 -9.1 °C -15.6 °C 34347.6 hPa SSW 29.8 km/h 29.8 km/h 46 % 0 mm 174.0 W/m2 FEW
09:01 -8.8 °C -15.4 °C 34347.6 hPa South 20.9 km/h 20.9 km/h 45 % 0 mm 195.0 W/m2 CLR
09:06 -8.2 °C -15.1 °C 34347.6 hPa South 29.8 km/h 29.8 km/h 44 % 0 mm 213.0 W/m2 CLR
09:12 -7.9 °C -14.8 °C 34347.6 hPa South 32.8 km/h 32.8 km/h 44 % 0 mm 227.0 W/m2 CLR
09:17 -7.6 °C -14.6 °C 34347.6 hPa SSW 18.2 km/h 18.2 km/h 44 % 0 mm 246.0 W/m2 CLR
09:22 -7.3 °C -14.2 °C 34337.4 hPa SSW 23.8 km/h 23.8 km/h 44 % 0 mm 264.0 W/m2 CLR
09:27 -7 °C -13.9 °C 34337.4 hPa SSW 29.8 km/h 29.8 km/h 44 % 0 mm 279.0 W/m2 CLR
09:32 -6.7 °C -13.7 °C 34337.4 hPa SSW 32.8 km/h 32.8 km/h 44 % 0 mm 294.0 W/m2 CLR
09:37 -6.3 °C -13.4 °C 34337.4 hPa SSW 38.8 km/h 38.8 km/h 44 % 0 mm 309.0 W/m2 CLR
09:42 -6.3 °C -13.4 °C 34337.4 hPa South 32.8 km/h 32.8 km/h 44 % 0 mm 327.0 W/m2 CLR
09:47 -6.1 °C -12.9 °C 34337.4 hPa SSW 29.8 km/h 29.8 km/h 45 % 0 mm 343.0 W/m2 CLR
09:52 -6.1 °C -12.9 °C 34337.4 hPa South 20.9 km/h 20.9 km/h 45 % 0 mm 357.0 W/m2 CLR
09:57 -5.7 °C -12.7 °C 34337.4 hPa SSW 35.7 km/h 35.7 km/h 45 % 0 mm 369.0 W/m2 CLR
10:02 -5.7 °C -12.4 °C 34337.4 hPa South 41.7 km/h 41.7 km/h 46 % 0 mm 385.0 W/m2 CLR
10:07 -5.7 °C -12.4 °C 34337.4 hPa SSW 38.8 km/h 38.8 km/h 46 % 0 mm 403.0 W/m2 CLR
10:12 -5.4 °C -12.2 °C 34337.4 hPa SW 50.7 km/h 50.7 km/h 46 % 0 mm 418.0 W/m2 CLR
10:17 -5.4 °C -12.2 °C 34337.4 hPa SSW 41.7 km/h 41.7 km/h 46 % 0 mm 434.0 W/m2 CLR
10:22 -5.4 °C -12.2 °C 34337.4 hPa SSW 38.8 km/h 38.8 km/h 46 % 0 mm 448.0 W/m2 CLR
10:27 -5.1 °C -11.7 °C 34337.4 hPa SSW 35.7 km/h 35.7 km/h 47 % 0 mm 462.0 W/m2 CLR
10:32 -5.1 °C -11.9 °C 34337.4 hPa SW 47.6 km/h 47.6 km/h 46 % 0 mm 475.0 W/m2 CLR
10:37 -4.8 °C -11.4 °C 34337.4 hPa SW 44.7 km/h 44.7 km/h 47 % 0 mm 489.0 W/m2 CLR
10:42 -4.8 °C -11.4 °C 34337.4 hPa SW 50.7 km/h 50.7 km/h 47 % 0 mm 504.0 W/m2 CLR
10:47 -4.8 °C -11.3 °C 34337.4 hPa SW 54.4 km/h 54.4 km/h 48 % 0 mm 519.0 W/m2 CLR
10:52 -4.8 °C -11.4 °C 34337.4 hPa SSW 38.8 km/h 38.8 km/h 47 % 0 mm 531.0 W/m2 CLR
10:57 -4.8 °C -11.4 °C 34347.6 hPa SW 38.8 km/h 38.8 km/h 47 % 0 mm 545.0 W/m2 CLR
11:02 -4.5 °C -11.2 °C 34337.4 hPa SW 47.6 km/h 47.6 km/h 47 % 0 mm 557.0 W/m2 CLR
11:07 -4.5 °C -11.2 °C 34337.4 hPa SSW 38.8 km/h 38.8 km/h 47 % 0 mm 570.0 W/m2 CLR
11:12 -4.5 °C -11 °C 34337.4 hPa SW 38.8 km/h 38.8 km/h 48 % 0 mm 580.0 W/m2 CLR
11:17 -4.2 °C -10.9 °C 34337.4 hPa South 32.8 km/h 32.8 km/h 47 % 0 mm 592.0 W/m2 CLR
11:22 -4.2 °C -10.7 °C 34337.4 hPa SW 38.8 km/h 38.8 km/h 48 % 0 mm 606.0 W/m2 CLR
11:27 -4.2 °C -10.9 °C 34337.4 hPa WSW 36.2 km/h 36.2 km/h 47 % 0 mm 617.0 W/m2 CLR
11:32 -3.9 °C -10.4 °C 34337.4 hPa WSW 50.7 km/h 50.7 km/h 48 % 0 mm 628.0 W/m2 CLR
11:37 -3.9 °C -10.4 °C 34337.4 hPa WSW 33.6 km/h 33.6 km/h 48 % 0 mm 638.0 W/m2 CLR
11:42 -3.9 °C -10.6 °C 34337.4 hPa WSW 44.7 km/h 44.7 km/h 47 % 0 mm 650.0 W/m2 CLR
11:47 -3.6 °C -10.3 °C 34337.4 hPa SW 47.6 km/h 47.6 km/h 47 % 0 mm 659.0 W/m2 CLR
11:52 -3.6 °C -10.3 °C 34337.4 hPa West 41.7 km/h 41.7 km/h 47 % 0 mm 668.0 W/m2 CLR
11:57 -3.3 °C -10.2 °C 34337.4 hPa SW 23.8 km/h 23.8 km/h 46 % 0 mm 677.0 W/m2 CLR
12:02 -3.3 °C -10.2 °C 34337.4 hPa SW 47.6 km/h 47.6 km/h 46 % 0 mm 687.0 W/m2 CLR
12:07 -3.3 °C -10.2 °C 34337.4 hPa SW 35.7 km/h 35.7 km/h 46 % 0 mm 696.0 W/m2 CLR
12:12 -3.6 °C -10.7 °C 34337.4 hPa West 47.6 km/h 47.6 km/h 45 % 0 mm 705.0 W/m2 CLR
12:17 -3.6 °C -10.5 °C 34337.4 hPa West 53.6 km/h 53.6 km/h 46 % 0 mm 712.0 W/m2 CLR
12:22 -3.9 °C -10.6 °C 34337.4 hPa WSW 29.8 km/h 29.8 km/h 47 % 0 mm 717.0 W/m2 CLR
12:27 -3.6 °C -10.5 °C 34337.4 hPa WSW 50.7 km/h 50.7 km/h 46 % 0 mm 728.0 W/m2 CLR
12:32 -3.6 °C -10.3 °C 34337.4 hPa West 35.7 km/h 35.7 km/h 47 % 0 mm 735.0 W/m2 CLR
12:37 -3.6 °C -10.5 °C 34327.3 hPa SW 36.2 km/h 36.2 km/h 46 % 0 mm 737.0 W/m2 CLR
12:42 -3.6 °C -10.5 °C 34327.3 hPa West 41.7 km/h 41.7 km/h 46 % 0 mm 745.0 W/m2 CLR
12:47 -3.3 °C -10.4 °C 34327.3 hPa SW 41.7 km/h 41.7 km/h 45 % 0 mm 751.0 W/m2 CLR
12:52 -2.9 °C -10.2 °C 34327.3 hPa SW 35.7 km/h 35.7 km/h 45 % 0 mm 754.0 W/m2 CLR
12:57 -2.9 °C -10.2 °C 34327.3 hPa West 50.7 km/h 50.7 km/h 45 % 0 mm 761.0 W/m2 CLR
13:02 -2.9 °C -9.9 °C 34327.3 hPa SW 44.1 km/h 44.1 km/h 46 % 0 mm 766.0 W/m2 CLR
13:08 -2.9 °C -10.2 °C 34327.3 hPa WSW 38.8 km/h 38.8 km/h 45 % 0 mm 768.0 W/m2 CLR
13:13 -2.9 °C -10.3 °C 34327.3 hPa WSW 50.7 km/h 50.7 km/h 44 % 0 mm 773.0 W/m2 CLR
13:18 -2.9 °C -10.2 °C 34327.3 hPa WSW 35.7 km/h 35.7 km/h 45 % 0 mm 775.0 W/m2 CLR
13:23 -2.9 °C -10.2 °C 34327.3 hPa West 44.7 km/h 44.7 km/h 45 % 0 mm 780.0 W/m2 CLR
13:28 -2.7 °C -10.1 °C 34327.3 hPa SW 47.6 km/h 47.6 km/h 44 % 0 mm 782.0 W/m2 CLR
13:33 -2.7 °C -10.1 °C 34327.3 hPa WSW 44.7 km/h 44.7 km/h 44 % 0 mm 784.0 W/m2 CLR
13:38 -2.7 °C -9.8 °C 34313.7 hPa SW 41.7 km/h 41.7 km/h 45 % 0 mm 786.0 W/m2 CLR
13:43 -2.7 °C -10.1 °C 34313.7 hPa SW 35.7 km/h 35.7 km/h 44 % 0 mm 789.0 W/m2 CLR
13:48 -2.3 °C -9.8 °C 34313.7 hPa SW 32.8 km/h 32.8 km/h 44 % 0 mm 788.0 W/m2 CLR
13:53 -2.3 °C -9.9 °C 34313.7 hPa WSW 46.7 km/h 46.7 km/h 43 % 0 mm 789.0 W/m2 CLR
13:58 -2.7 °C -10.1 °C 34313.7 hPa West 33.6 km/h 33.6 km/h 44 % 0 mm 786.0 W/m2 CLR
14:03 -2.7 °C -10.2 °C 34313.7 hPa WSW 50.7 km/h 50.7 km/h 43 % 0 mm 789.0 W/m2 CLR
14:08 -2.3 °C -9.6 °C 34313.7 hPa WNW 29.8 km/h 29.8 km/h 45 % 0 mm 791.0 W/m2 CLR
14:13 -2.7 °C -9.8 °C 34313.7 hPa West 32.8 km/h 32.8 km/h 45 % 0 mm 793.0 W/m2 CLR
14:18 -2.7 °C -10.2 °C 34313.7 hPa WSW 32.8 km/h 32.8 km/h 43 % 0 mm 788.0 W/m2 CLR
14:23 -2.7 °C -10.2 °C 34313.7 hPa SW 36.2 km/h 36.2 km/h 43 % 0 mm 800.0 W/m2 CLR
14:28 -2.7 °C -10.1 °C 34303.6 hPa WNW 32.8 km/h 32.8 km/h 44 % 0 mm 782.0 W/m2 CLR
14:33 -2.3 °C -9.9 °C 34313.7 hPa WSW 47.6 km/h 47.6 km/h 43 % 0 mm 779.0 W/m2 CLR
14:38 -2.3 °C -9.9 °C 34303.6 hPa SW 41.7 km/h 41.7 km/h 43 % 0 mm 775.0 W/m2 CLR
14:43 -2.3 °C -9.9 °C 34303.6 hPa WSW 35.7 km/h 35.7 km/h 43 % 0 mm 773.0 W/m2 CLR
14:48 -2.3 °C -9.9 °C 34303.6 hPa West 38.8 km/h 38.8 km/h 43 % 0 mm 768.0 W/m2 CLR
14:53 -2.1 °C -9.7 °C 34303.6 hPa West 53.6 km/h 53.6 km/h 43 % 0 mm 763.0 W/m2 CLR
14:58 -2.1 °C -9.9 °C 34303.6 hPa WSW 41.7 km/h 41.7 km/h 42 % 0 mm 761.0 W/m2 CLR
15:03 -2.3 °C -10.2 °C 34303.6 hPa West 47.6 km/h 47.6 km/h 42 % 0 mm 758.0 W/m2 CLR
15:08 -2.1 °C -9.9 °C 34303.6 hPa WSW 38.8 km/h 38.8 km/h 42 % 0 mm 751.0 W/m2 CLR
15:13 -2.1 °C -10.1 °C 34293.4 hPa West 51.8 km/h 51.8 km/h 41 % 0 mm 747.0 W/m2 CLR
15:18 -2.1 °C -9.9 °C 34293.4 hPa WSW 50.7 km/h 50.7 km/h 42 % 0 mm 738.0 W/m2 CLR
15:23 -2.1 °C -9.9 °C 34293.4 hPa WSW 38.8 km/h 38.8 km/h 42 % 0 mm 729.0 W/m2 CLR
15:28 -2.1 °C -10.1 °C 34293.4 hPa West 62.6 km/h 62.6 km/h 41 % 0 mm 724.0 W/m2 CLR
15:33 -2.1 °C -10.1 °C 34293.4 hPa West 53.6 km/h 53.6 km/h 41 % 0 mm 717.0 W/m2 CLR
15:38 -2.1 °C -9.9 °C 34293.4 hPa SW 41.7 km/h 41.7 km/h 42 % 0 mm 708.0 W/m2 CLR
15:43 -1.7 °C -9.6 °C 34293.4 hPa West 35.7 km/h 35.7 km/h 42 % 0 mm 700.0 W/m2 CLR
15:48 -2.1 °C -9.7 °C 34293.4 hPa WNW 29.8 km/h 29.8 km/h 43 % 0 mm 689.0 W/m2 CLR
15:53 -2.3 °C -10.2 °C 34279.9 hPa West 57 km/h 57 km/h 42 % 0 mm 686.0 W/m2 CLR
15:58 -2.1 °C -9.9 °C 34279.9 hPa WNW 44.7 km/h 44.7 km/h 42 % 0 mm 675.0 W/m2 CLR
16:03 -2.3 °C -9.8 °C 34279.9 hPa SW 41.7 km/h 41.7 km/h 44 % 0 mm 663.0 W/m2 CLR
16:08 -2.3 °C -9.9 °C 34279.9 hPa West 44.7 km/h 44.7 km/h 43 % 0 mm 656.0 W/m2 CLR
16:13 -2.3 °C -10.2 °C 34279.9 hPa WSW 50.7 km/h 50.7 km/h 42 % 0 mm 645.0 W/m2 CLR
16:18 -2.1 °C -9.5 °C 34279.9 hPa WSW 35.7 km/h 35.7 km/h 44 % 0 mm 635.0 W/m2 CLR
16:23 -2.3 °C -9.8 °C 34279.9 hPa WSW 38.8 km/h 38.8 km/h 44 % 0 mm 621.0 W/m2 CLR
16:28 -2.3 °C -9.9 °C 34279.9 hPa West 56.6 km/h 56.6 km/h 43 % 0 mm 610.0 W/m2 CLR
16:33 -2.3 °C -9.8 °C 34279.9 hPa WSW 44.7 km/h 44.7 km/h 44 % 0 mm 598.0 W/m2 CLR
16:38 -2.3 °C -9.8 °C 34279.9 hPa West 35.7 km/h 35.7 km/h 44 % 0 mm 587.0 W/m2 CLR
16:43 -2.7 °C -10.1 °C 34269.7 hPa WNW 59.5 km/h 59.5 km/h 44 % 0 mm 577.0 W/m2 CLR
16:48 -2.3 °C -9.8 °C 34269.7 hPa West 74.5 km/h 74.5 km/h 44 % 0 mm 564.0 W/m2 CLR
16:53 -2.3 °C -9.8 °C 34269.7 hPa WNW 35.7 km/h 35.7 km/h 44 % 0 mm 552.0 W/m2 CLR
16:58 -2.3 °C -9.6 °C 34269.7 hPa WSW 50.7 km/h 50.7 km/h 45 % 0 mm 541.0 W/m2 CLR
17:03 -2.3 °C -9.8 °C 34269.7 hPa West 33.6 km/h 33.6 km/h 44 % 0 mm 524.0 W/m2 CLR
17:08 -2.3 °C -9.8 °C 34269.7 hPa West 47.6 km/h 47.6 km/h 44 % 0 mm 515.0 W/m2 CLR
17:13 -2.7 °C -10.1 °C 34269.7 hPa West 46.7 km/h 46.7 km/h 44 % 0 mm 503.0 W/m2 CLR
17:18 -2.7 °C -9.8 °C 34269.7 hPa NW 33.6 km/h 33.6 km/h 45 % 0 mm 489.0 W/m2 CLR
17:23 -2.3 °C -9.8 °C 34269.7 hPa West 35.7 km/h 35.7 km/h 44 % 0 mm 476.0 W/m2 CLR
17:28 -2.3 °C -9.6 °C 34269.7 hPa WSW 44.7 km/h 44.7 km/h 45 % 0 mm 454.0 W/m2 CLR
17:33 -2.3 °C -9.6 °C 34269.7 hPa SW 38.8 km/h 38.8 km/h 45 % 0 mm 443.0 W/m2 CLR
17:38 -2.3 °C -9.6 °C 34269.7 hPa West 32.8 km/h 32.8 km/h 45 % 0 mm 431.0 W/m2 CLR
17:43 -2.7 °C -9.8 °C 34269.7 hPa West 50.7 km/h 50.7 km/h 45 % 0 mm 415.0 W/m2 CLR
17:48 -2.7 °C -9.7 °C 34256.2 hPa WSW 29.8 km/h 29.8 km/h 46 % 0 mm 397.0 W/m2 CLR
17:53 -2.7 °C -9.8 °C 34269.7 hPa West 32.8 km/h 32.8 km/h 45 % 0 mm 383.0 W/m2 CLR
17:58 -2.7 °C -9.8 °C 34269.7 hPa WNW 44.7 km/h 44.7 km/h 45 % 0 mm 367.0 W/m2 CLR
18:03 -2.7 °C -9.8 °C 34269.7 hPa West 38.8 km/h 38.8 km/h 45 % 0 mm 352.0 W/m2 CLR
18:08 -2.9 °C -10.2 °C 34269.7 hPa WSW 38.8 km/h 38.8 km/h 45 % 0 mm 334.0 W/m2 CLR
18:13 -2.9 °C -10.2 °C 34269.7 hPa SW 26.9 km/h 26.9 km/h 45 % 0 mm 318.0 W/m2 CLR
18:18 -2.9 °C -10.2 °C 34269.7 hPa WNW 31.1 km/h 31.1 km/h 45 % 0 mm 302.0 W/m2 CLR
18:24 -3.3 °C -10.4 °C 34269.7 hPa West 35.7 km/h 35.7 km/h 45 % 0 mm 288.0 W/m2 CLR
18:29 -3.3 °C -10.2 °C 34269.7 hPa WSW 35.7 km/h 35.7 km/h 46 % 0 mm 272.0 W/m2 CLR
18:34 -3.3 °C -10.2 °C 34269.7 hPa WNW 36.2 km/h 36.2 km/h 46 % 0 mm 255.0 W/m2 CLR
18:39 -3.3 °C -10.2 °C 34269.7 hPa WNW 47.6 km/h 47.6 km/h 46 % 0 mm 239.0 W/m2 CLR
18:44 -3.3 °C -10.2 °C 34269.7 hPa WSW 35.7 km/h 35.7 km/h 46 % 0 mm 223.0 W/m2 CLR
18:49 -3.3 °C -10.2 °C 34269.7 hPa WSW 29.8 km/h 29.8 km/h 46 % 0 mm 204.0 W/m2 CLR
18:54 -3.6 °C -10.5 °C 34279.9 hPa West 35.7 km/h 35.7 km/h 46 % 0 mm 183.0 W/m2 CLR
18:59 -3.6 °C -10.5 °C 34269.7 hPa WSW 38.8 km/h 38.8 km/h 46 % 0 mm 165.0 W/m2 CLR
19:04 -3.6 °C -10.5 °C 34269.7 hPa WSW 36.2 km/h 36.2 km/h 46 % 0 mm 148.0 W/m2 CLR
19:09 -3.6 °C -10.3 °C 34269.7 hPa WSW 38.8 km/h 38.8 km/h 47 % 0 mm 130.0 W/m2 CLR
19:14 -3.6 °C -10.3 °C 34279.9 hPa WSW 41.7 km/h 41.7 km/h 47 % 0 mm 111.0 W/m2 CLR
19:19 -3.9 °C -10.6 °C 34279.9 hPa WSW 35.7 km/h 35.7 km/h 47 % 0 mm 97.0 W/m2 CLR
19:24 -3.9 °C -10.4 °C 34279.9 hPa West 38.8 km/h 38.8 km/h 48 % 0 mm 79.0 W/m2 FEW
19:29 -3.9 °C -10.4 °C 34279.9 hPa SW 35.7 km/h 35.7 km/h 48 % 0 mm 62.0 W/m2 SCT
19:34 -3.9 °C -10.4 °C 34279.9 hPa West 32.8 km/h 32.8 km/h 48 % 0 mm 46.0 W/m2 SCT
19:39 -4.2 °C -10.7 °C 34279.9 hPa West 29.8 km/h 29.8 km/h 48 % 0 mm 37.0 W/m2 BKN
19:44 -4.2 °C -10.7 °C 34279.9 hPa WSW 26.9 km/h 26.9 km/h 48 % 0 mm 28.0 W/m2 BKN
19:49 -4.2 °C -10.7 °C 34279.9 hPa WSW 35.7 km/h 35.7 km/h 48 % 0 mm 19.0 W/m2 BKN
19:51 -4.2 °C -10.5 °C 34279.9 hPa WSW 32.8 km/h 32.8 km/h 49 % 0 mm 19.0 W/m2 BKN
19:56 -4.5 °C -10.8 °C 34279.9 hPa WSW 23.8 km/h 23.8 km/h 49 % 0 mm 14.0 W/m2 BKN
20:01 -4.5 °C -10.7 °C 34279.9 hPa SW 29.8 km/h 29.8 km/h 50 % 0 mm 11.0 W/m2 BKN
20:06 -4.5 °C -10.7 °C 34279.9 hPa WSW 26.9 km/h 26.9 km/h 50 % 0 mm 9.0 W/m2 BKN
20:11 -4.5 °C -10.5 °C 34279.9 hPa SSW 20.9 km/h 20.9 km/h 51 % 0 mm 7.0 W/m2 BKN
20:16 -4.8 °C -10.8 °C 34293.4 hPa SW 23.8 km/h 23.8 km/h 51 % 0 mm 5.0 W/m2 OVC
20:21 -4.8 °C -10.8 °C 34279.9 hPa WSW 26.9 km/h 26.9 km/h 51 % 0 mm 0.0 W/m2 OVC
20:26 -5.1 °C -10.9 °C 34293.4 hPa Calm     52 % 0 mm 0.0 W/m2 CLR
20:31 -5.4 °C -11.2 °C 34293.4 hPa WSW 26.9 km/h 26.9 km/h 52 % 0 mm 0.0 W/m2 CLR
20:36 -5.4 °C -11.2 °C 34293.4 hPa WSW 26.9 km/h 26.9 km/h 52 % 0 mm 0.0 W/m2 CLR
20:41 -5.7 °C -11.3 °C 34293.4 hPa Calm     53 % 0 mm 0.0 W/m2 CLR
20:46 -5.7 °C -11.3 °C 34293.4 hPa SW 18.2 km/h 18.2 km/h 53 % 0 mm 0.0 W/m2 CLR
20:51 -6.1 °C -11.6 °C 34293.4 hPa WSW 26.9 km/h 26.9 km/h 53 % 0 mm 0.0 W/m2 CLR
20:56 -6.1 °C -11.6 °C 34293.4 hPa SW 20.9 km/h 20.9 km/h 53 % 0 mm 0.0 W/m2 CLR
21:01 -6.3 °C -11.7 °C 34303.6 hPa Calm     54 % 0 mm 0.0 W/m2 CLR
21:06 -6.3 °C -11.7 °C 34303.6 hPa SW 9 km/h   54 % 0 mm 0.0 W/m2 CLR
21:11 -6.7 °C -11.8 °C 34303.6 hPa Calm     55 % 0 mm 0.0 W/m2 CLR
21:16 -6.7 °C -11.8 °C 34303.6 hPa Calm     55 % 0 mm 0.0 W/m2 CLR
21:21 -7 °C -12.1 °C 34303.6 hPa Calm     55 % 0 mm 0.0 W/m2 CLR
21:26 -7 °C -12 °C 34303.6 hPa WSW 18.2 km/h 18.2 km/h 56 % 0 mm 0.0 W/m2 CLR
21:31 -7 °C -12 °C 34313.7 hPa SSW 6 km/h 6 km/h 56 % 0 mm 0.0 W/m2 CLR
21:36 -7 °C -12 °C 34313.7 hPa SW 23.8 km/h 23.8 km/h 56 % 0 mm 0.0 W/m2 CLR
21:41 -7 °C -12.1 °C 34313.7 hPa WSW 25.9 km/h 25.9 km/h 55 % 0 mm 0.0 W/m2 CLR
21:46 -6.7 °C -11.8 °C 34327.3 hPa SW 29.8 km/h 29.8 km/h 55 % 0 mm 0.0 W/m2 CLR
21:51 -6.3 °C -11.4 °C 34327.3 hPa WSW 26.9 km/h 26.9 km/h 56 % 0 mm 0.0 W/m2 CLR
21:56 -6.3 °C -11.4 °C 34327.3 hPa WSW 29.8 km/h 29.8 km/h 56 % 0 mm 0.0 W/m2 CLR
22:01 -6.1 °C -11.1 °C 34327.3 hPa SW 32.8 km/h 32.8 km/h 56 % 0 mm 0.0 W/m2 CLR
22:06 -6.1 °C -11.1 °C 34337.4 hPa SW 26.9 km/h 26.9 km/h 56 % 0 mm 0.0 W/m2 CLR
22:11 -6.1 °C -11.1 °C 34337.4 hPa WSW 29.8 km/h 29.8 km/h 56 % 0 mm 0.0 W/m2 CLR
22:16 -6.1 °C -11.1 °C 34337.4 hPa SW 29.8 km/h 29.8 km/h 56 % 0 mm 0.0 W/m2 CLR
22:21 -6.1 °C -10.9 °C 34337.4 hPa SW 26.9 km/h 26.9 km/h 57 % 0 mm 0.0 W/m2 CLR
22:26 -6.1 °C -10.9 °C 34347.6 hPa SW 36.2 km/h 36.2 km/h 57 % 0 mm 0.0 W/m2 CLR
22:31 -6.3 °C -11.3 °C 34347.6 hPa West 33.6 km/h 33.6 km/h 57 % 0 mm 0.0 W/m2 CLR
22:36 -6.3 °C -11.3 °C 34347.6 hPa SW 47.6 km/h 47.6 km/h 57 % 0 mm 0.0 W/m2 CLR
22:41 -6.3 °C -11.3 °C 34347.6 hPa WSW 44.7 km/h 44.7 km/h 57 % 0 mm 0.0 W/m2 CLR
22:46 -6.3 °C -11.3 °C 34347.6 hPa WSW 35.7 km/h 35.7 km/h 57 % 0 mm 0.0 W/m2 CLR
22:51 -6.3 °C -11.1 °C 34347.6 hPa WSW 32.8 km/h 32.8 km/h 58 % 0 mm 0.0 W/m2 CLR
22:56 -6.7 °C -11.4 °C 34347.6 hPa WSW 29.8 km/h 29.8 km/h 58 % 0 mm 0.0 W/m2 CLR
23:01 -6.7 °C -11.4 °C 34347.6 hPa SSW 29.8 km/h 29.8 km/h 58 % 0 mm 0.0 W/m2 CLR
23:06 -6.7 °C -11.4 °C 34347.6 hPa SW 20.9 km/h 20.9 km/h 58 % 0 mm 0.0 W/m2 CLR
23:11 -6.7 °C -11.3 °C 34361.1 hPa SSW 18.2 km/h 18.2 km/h 59 % 0 mm 0.0 W/m2 CLR
23:16 -7 °C -11.6 °C 34361.1 hPa SW 23.3 km/h 23.3 km/h 59 % 0 mm 0.0 W/m2 CLR
23:21 -7 °C -11.6 °C 34361.1 hPa SSW 23.8 km/h 23.8 km/h 59 % 0 mm 0.0 W/m2 CLR
23:26 -7 °C -11.6 °C 34361.1 hPa SSW 29.8 km/h 29.8 km/h 59 % 0 mm 0.0 W/m2 CLR
23:31 -7 °C -11.4 °C 34361.1 hPa SSW 18.2 km/h 18.2 km/h 60 % 0 mm 0.0 W/m2 CLR
23:36 -7 °C -11.4 °C 34361.1 hPa SSW 26.9 km/h 26.9 km/h 60 % 0 mm 0.0 W/m2 CLR
23:41 -7 °C -11.4 °C 34361.1 hPa SSW 20.9 km/h 20.9 km/h 60 % 0 mm 0.0 W/m2 CLR
23:46 -7 °C -11.4 °C 34361.1 hPa SSW 29.8 km/h 29.8 km/h 60 % 0 mm 0.0 W/m2 CLR
23:51 -7.3 °C -11.6 °C 34371.3 hPa SSW 26.9 km/h 26.9 km/h 61 % 0 mm 0.0 W/m2 CLR
23:56 -7.3 °C -11.6 °C 34371.3 hPa SSW 23.8 km/h 23.8 km/h 61 % 0 mm 0.0 W/m2 CLR
Lo Temps de Massalio
Compliments of Weather Underground - 1.25 mb